createdAt,value
2022-12-06T00:01:46.177Z,73.73
2022-12-06T00:04:17.229Z,73.73
2022-12-06T00:06:48.979Z,73.78
2022-12-06T00:09:18.791Z,73.78
2022-12-06T00:11:48.113Z,73.61
2022-12-06T00:14:18.239Z,73.47
2022-12-06T00:16:48.671Z,73.45
2022-12-06T00:19:20.330Z,73.52
2022-12-06T00:21:49.676Z,73.70
2022-12-06T00:24:22.079Z,73.97
2022-12-06T00:26:53.463Z,73.95
2022-12-06T00:29:24.356Z,73.77
2022-12-06T00:31:53.795Z,73.69
2022-12-06T00:34:22.478Z,73.88
2022-12-06T00:36:51.402Z,74.10
2022-12-06T00:39:20.441Z,74.18
2022-12-06T00:41:49.205Z,74.12
2022-12-06T00:44:18.000Z,74.13
2022-12-06T00:46:46.709Z,74.14
2022-12-06T00:49:15.712Z,74.02
2022-12-06T00:51:44.569Z,73.97
2022-12-06T00:54:15.318Z,73.98
2022-12-06T00:56:43.989Z,74.07
2022-12-06T00:59:12.733Z,74.16
2022-12-06T01:01:43.003Z,74.14
2022-12-06T01:04:11.773Z,74.30
2022-12-06T01:06:40.499Z,74.34
2022-12-06T01:09:12.329Z,74.30
2022-12-06T01:11:41.252Z,74.29
2022-12-06T01:14:10.271Z,74.36
2022-12-06T01:16:39.456Z,74.46
2022-12-06T01:19:08.453Z,74.66
2022-12-06T01:21:37.304Z,74.69
2022-12-06T01:24:06.722Z,74.72
2022-12-06T01:26:36.420Z,74.73
2022-12-06T01:29:06.088Z,74.58
2022-12-06T01:31:38.834Z,74.66
2022-12-06T01:34:17.313Z,74.78
2022-12-06T01:36:46.199Z,74.81
2022-12-06T01:39:15.700Z,74.74
2022-12-06T01:41:44.695Z,74.84
2022-12-06T01:44:49.853Z,74.91
2022-12-06T01:47:37.692Z,74.94
2022-12-06T01:50:22.063Z,74.95
2022-12-06T01:52:58.494Z,75.04
2022-12-06T01:55:32.913Z,74.89
2022-12-06T01:58:10.413Z,75.16
2022-12-06T02:03:53.977Z,75.31
2022-12-06T02:06:24.723Z,75.46
2022-12-06T02:08:57.165Z,75.46
2022-12-06T02:11:29.424Z,75.41
2022-12-06T02:14:02.778Z,75.24
2022-12-06T02:17:23.212Z,75.02
2022-12-06T02:20:19.509Z,75.04
2022-12-06T02:23:12.061Z,75.27
2022-12-06T02:26:29.034Z,75.38
2022-12-06T02:29:53.902Z,75.45
2022-12-06T02:33:00.707Z,75.38
2022-12-06T02:35:44.341Z,75.33
2022-12-06T02:38:43.679Z,75.34
2022-12-06T02:41:40.400Z,75.09
2022-12-06T02:44:20.031Z,75.01
2022-12-06T02:46:51.195Z,74.92
2022-12-06T02:49:24.573Z,75.07
2022-12-06T02:51:54.841Z,75.26
2022-12-06T02:54:27.172Z,75.36
2022-12-06T02:56:56.050Z,75.33
2022-12-06T02:59:24.842Z,75.35
2022-12-06T03:01:59.792Z,75.35
2022-12-06T03:04:49.787Z,75.20
2022-12-06T03:07:49.230Z,75.14
2022-12-06T03:10:27.323Z,75.08
2022-12-06T03:13:14.378Z,75.03
2022-12-06T03:16:17.443Z,75.11
2022-12-06T03:19:05.214Z,75.20
2022-12-06T03:21:53.953Z,75.37
2022-12-06T03:24:24.623Z,75.44
2022-12-06T03:26:56.640Z,75.56
2022-12-06T03:29:30.482Z,75.63
2022-12-06T03:32:05.206Z,75.65
2022-12-06T03:34:41.578Z,75.80
2022-12-06T03:37:16.271Z,75.91
2022-12-06T03:40:14.950Z,75.97
2022-12-06T03:42:43.944Z,76.11
2022-12-06T03:45:14.456Z,76.15
2022-12-06T03:47:58.519Z,76.07
2022-12-06T03:50:39.485Z,76.02
2022-12-06T03:53:08.597Z,75.96
2022-12-06T03:55:37.439Z,75.95
2022-12-06T03:58:06.334Z,75.83
2022-12-06T04:00:35.130Z,75.73
2022-12-06T04:03:04.145Z,75.89
2022-12-06T04:05:33.059Z,75.90
2022-12-06T04:08:02.024Z,75.75
2022-12-06T04:10:31.025Z,75.84
2022-12-06T04:13:02.627Z,75.86
2022-12-06T04:15:36.906Z,75.77
2022-12-06T04:18:18.647Z,75.60
2022-12-06T04:21:08.673Z,75.50
2022-12-06T04:23:41.154Z,75.49
2022-12-06T04:26:14.396Z,75.59
2022-12-06T04:29:01.933Z,75.59
2022-12-06T04:31:49.950Z,75.58
2022-12-06T04:34:37.829Z,75.52
2022-12-06T04:37:25.895Z,75.63
2022-12-06T04:39:56.136Z,75.82
2022-12-06T04:43:03.364Z,75.81
2022-12-06T04:45:32.288Z,75.85
2022-12-06T04:48:01.218Z,75.89
2022-12-06T04:50:30.064Z,75.94
2022-12-06T04:52:59.163Z,75.91
2022-12-06T04:55:28.059Z,75.98
2022-12-06T04:57:56.842Z,75.91
2022-12-06T05:00:25.735Z,75.92
2022-12-06T05:02:54.927Z,75.86
2022-12-06T05:05:24.558Z,75.71
2022-12-06T05:07:53.647Z,75.73
2022-12-06T05:10:22.659Z,75.87
2022-12-06T05:12:51.757Z,75.87
2022-12-06T05:15:24.478Z,75.95
2022-12-06T05:17:55.990Z,75.86
2022-12-06T05:20:25.031Z,75.75
2022-12-06T05:22:53.946Z,75.65
2022-12-06T05:25:22.776Z,75.52
2022-12-06T05:27:51.621Z,75.38
2022-12-06T05:30:20.592Z,75.32
2022-12-06T05:32:53.882Z,75.60
2022-12-06T05:35:25.850Z,75.68
2022-12-06T05:37:54.658Z,75.62
2022-12-06T05:40:23.478Z,75.54
2022-12-06T05:42:54.465Z,75.53
2022-12-06T05:45:23.971Z,75.59
2022-12-06T05:47:52.922Z,75.61
2022-12-06T05:50:21.837Z,75.59
2022-12-06T05:52:57.235Z,75.45
2022-12-06T05:55:27.850Z,75.55
2022-12-06T05:57:56.878Z,75.63
2022-12-06T06:00:25.910Z,75.60
2022-12-06T06:02:54.974Z,75.54
2022-12-06T06:05:24.000Z,75.46
2022-12-06T06:07:53.096Z,75.40
2022-12-06T06:10:23.329Z,75.25
2022-12-06T06:12:53.042Z,75.18
2022-12-06T06:15:23.239Z,75.04
2022-12-06T06:17:53.683Z,75.12
2022-12-06T06:20:22.573Z,75.16
2022-12-06T06:22:51.512Z,75.06
2022-12-06T06:25:20.854Z,75.07
2022-12-06T06:27:49.705Z,75.20
2022-12-06T06:30:20.506Z,75.26
2022-12-06T06:32:49.680Z,75.10
2022-12-06T06:35:18.935Z,75.09
2022-12-06T06:37:48.334Z,75.14
2022-12-06T06:40:17.782Z,75.19
2022-12-06T06:42:46.836Z,75.21
2022-12-06T06:45:15.752Z,75.26
2022-12-06T06:47:44.608Z,75.25
2022-12-06T06:50:14.571Z,75.27
2022-12-06T06:52:43.473Z,75.31
2022-12-06T06:55:12.882Z,75.17
2022-12-06T06:57:41.815Z,75.13
2022-12-06T07:00:11.691Z,75.14
2022-12-06T07:02:40.634Z,75.05
2022-12-06T07:05:09.817Z,75.06
2022-12-06T07:07:39.278Z,75.09
2022-12-06T07:10:11.491Z,75.02
2022-12-06T07:12:40.453Z,74.94
2022-12-06T07:15:10.058Z,75.07
2022-12-06T07:17:39.026Z,75.05
2022-12-06T07:20:08.718Z,75.00
2022-12-06T07:22:37.849Z,74.83
2022-12-06T07:25:07.240Z,74.74
2022-12-06T07:27:37.152Z,74.59
2022-12-06T07:30:07.322Z,74.63
2022-12-06T07:32:37.289Z,74.89
2022-12-06T07:35:07.113Z,75.01
2022-12-06T07:37:36.083Z,75.10
2022-12-06T07:40:06.646Z,75.07
2022-12-06T07:42:54.473Z,75.04
2022-12-06T07:45:23.541Z,75.17
2022-12-06T07:47:52.566Z,75.15
2022-12-06T07:50:23.149Z,75.21
2022-12-06T07:52:52.087Z,75.33
2022-12-06T07:55:21.226Z,75.56
2022-12-06T07:57:49.911Z,75.75
2022-12-06T08:00:19.424Z,75.85
2022-12-06T08:02:48.280Z,75.88
2022-12-06T08:05:17.212Z,75.93
2022-12-06T08:07:45.977Z,76.02
2022-12-06T08:10:14.802Z,76.05
2022-12-06T08:12:43.674Z,76.09
2022-12-06T08:15:15.536Z,76.18
2022-12-06T08:17:45.479Z,76.37
2022-12-06T08:20:16.795Z,76.54
2022-12-06T08:22:45.694Z,76.60
2022-12-06T08:25:14.765Z,76.65
2022-12-06T08:27:43.566Z,76.66
2022-12-06T08:30:12.813Z,76.65
2022-12-06T08:32:41.686Z,76.52
2022-12-06T08:35:11.791Z,76.60
2022-12-06T08:37:40.616Z,76.70
2022-12-06T08:40:11.813Z,76.62
2022-12-06T08:42:42.397Z,76.60
2022-12-06T08:45:11.704Z,76.68
2022-12-06T08:47:40.450Z,76.77
2022-12-06T08:50:09.552Z,76.62
2022-12-06T08:52:38.404Z,76.62
2022-12-06T08:55:08.128Z,76.56
2022-12-06T08:57:37.042Z,76.43
2022-12-06T09:00:07.202Z,76.42
2022-12-06T09:02:39.986Z,76.32
2022-12-06T09:05:09.673Z,76.14
2022-12-06T09:07:38.554Z,76.06
2022-12-06T09:10:08.542Z,75.99
2022-12-06T09:12:37.423Z,75.97
2022-12-06T09:15:07.018Z,76.02
2022-12-06T09:17:36.223Z,76.07
2022-12-06T09:20:06.685Z,76.08
2022-12-06T09:22:35.922Z,75.94
2022-12-06T09:25:05.178Z,75.97
2022-12-06T09:27:34.005Z,75.85
2022-12-06T09:30:04.293Z,75.68
2022-12-06T09:32:33.254Z,75.68
2022-12-06T09:35:02.173Z,75.63
2022-12-06T09:37:32.620Z,75.66
2022-12-06T09:40:11.814Z,75.59
2022-12-06T09:43:28.757Z,75.63
2022-12-06T09:46:25.066Z,75.80
2022-12-06T09:49:44.520Z,75.90
2022-12-06T09:52:37.384Z,75.90
2022-12-06T09:55:20.222Z,75.91
2022-12-06T09:58:19.804Z,75.85
2022-12-06T10:01:06.754Z,75.88
2022-12-06T10:04:02.034Z,75.94
2022-12-06T10:06:48.559Z,76.01
2022-12-06T10:09:29.982Z,76.05
2022-12-06T10:12:17.291Z,76.01
2022-12-06T10:15:09.127Z,75.94
2022-12-06T10:17:52.327Z,75.84
2022-12-06T10:20:47.453Z,75.70
2022-12-06T10:23:41.757Z,75.47
2022-12-06T10:26:26.612Z,75.55
2022-12-06T10:29:32.915Z,75.71
2022-12-06T10:32:32.829Z,75.75
2022-12-06T10:35:55.685Z,75.64
2022-12-06T10:38:57.597Z,75.67
2022-12-06T10:41:45.576Z,75.84
2022-12-06T10:44:46.809Z,75.82
2022-12-06T10:47:40.832Z,75.71
2022-12-06T10:50:30.423Z,75.38
2022-12-06T10:53:39.354Z,75.26
2022-12-06T10:56:33.845Z,75.59
2022-12-06T10:59:27.296Z,75.48
2022-12-06T11:02:55.710Z,75.11
2022-12-06T11:06:01.758Z,75.02
2022-12-06T11:08:45.570Z,74.83
2022-12-06T11:11:36.068Z,74.71
2022-12-06T11:14:48.468Z,74.94
2022-12-06T11:17:34.224Z,75.05
2022-12-06T11:20:30.010Z,74.97
2022-12-06T11:23:38.962Z,74.93
2022-12-06T11:27:00.222Z,75.03
2022-12-06T11:30:02.532Z,75.02
2022-12-06T11:32:50.899Z,74.80
2022-12-06T11:35:30.714Z,74.74
2022-12-06T11:38:10.977Z,74.49
2022-12-06T11:41:07.385Z,74.36
2022-12-06T11:43:47.543Z,74.29
2022-12-06T11:49:37.148Z,74.24
2022-12-06T11:52:42.673Z,74.14
2022-12-06T11:55:47.200Z,74.10
2022-12-06T11:58:38.126Z,74.18
2022-12-06T12:01:14.808Z,74.23
2022-12-06T12:04:36.036Z,74.01
2022-12-06T12:07:24.247Z,74.11
2022-12-06T12:10:09.783Z,74.17
2022-12-06T12:13:08.408Z,73.90
2022-12-06T12:16:48.669Z,73.87
2022-12-06T12:19:37.564Z,73.78
2022-12-06T12:23:14.123Z,73.43
2022-12-06T12:26:29.455Z,73.51
2022-12-06T12:29:33.367Z,73.40
2022-12-06T12:33:06.937Z,73.32
2022-12-06T12:35:28.232Z,73.30
2022-12-06T12:38:19.121Z,73.23
2022-12-06T12:41:12.994Z,73.09
2022-12-06T12:44:20.518Z,73.32
2022-12-06T12:46:52.271Z,73.30
2022-12-06T12:49:30.724Z,72.93
2022-12-06T12:52:04.896Z,72.90
2022-12-06T12:54:40.532Z,73.01
2022-12-06T12:57:26.735Z,72.86
2022-12-06T13:00:00.757Z,72.78
2022-12-06T13:02:40.848Z,72.78
2022-12-06T13:05:35.474Z,72.71
2022-12-06T13:08:32.448Z,72.64
2022-12-06T13:11:24.473Z,72.58
2022-12-06T13:14:13.972Z,72.56
2022-12-06T13:17:11.117Z,72.81
2022-12-06T13:19:59.484Z,72.89
2022-12-06T13:22:52.993Z,72.76
2022-12-06T13:25:32.244Z,72.72
2022-12-06T13:28:13.686Z,72.77
2022-12-06T13:30:59.331Z,72.78
2022-12-06T13:33:37.166Z,72.83
2022-12-06T13:36:14.300Z,72.79
2022-12-06T13:38:48.997Z,72.77
2022-12-06T13:42:11.254Z,72.71
2022-12-06T13:45:01.483Z,72.87
2022-12-06T13:47:31.211Z,72.99
2022-12-06T13:50:22.993Z,72.92
2022-12-06T13:52:57.217Z,72.89
2022-12-06T13:55:33.012Z,72.93
2022-12-06T13:58:05.582Z,72.86
2022-12-06T14:00:44.356Z,72.76
2022-12-06T14:03:24.202Z,72.73
2022-12-06T14:06:20.635Z,72.79
2022-12-06T14:09:00.443Z,72.81
2022-12-06T14:11:45.777Z,72.76
2022-12-06T14:14:26.626Z,72.68
2022-12-06T14:17:38.395Z,72.76
2022-12-06T14:20:29.522Z,72.71
2022-12-06T14:23:05.081Z,72.74
2022-12-06T14:25:43.803Z,72.76
2022-12-06T14:28:22.231Z,72.76
2022-12-06T14:31:04.970Z,72.63
2022-12-06T14:33:39.950Z,72.59
2022-12-06T14:36:32.213Z,72.67
2022-12-06T14:39:25.519Z,72.66
2022-12-06T14:42:37.194Z,72.62
2022-12-06T14:45:16.026Z,72.59
2022-12-06T14:47:49.126Z,72.77
2022-12-06T14:50:33.100Z,72.81
2022-12-06T14:53:29.363Z,72.74
2022-12-06T14:56:29.713Z,72.65
2022-12-06T14:59:01.925Z,72.89
2022-12-06T15:01:34.291Z,72.84
2022-12-06T15:04:09.509Z,72.76
2022-12-06T15:06:52.445Z,72.66
2022-12-06T15:09:22.486Z,72.85
2022-12-06T15:12:10.649Z,72.94
2022-12-06T15:14:39.818Z,72.86
2022-12-06T15:17:13.376Z,72.93
2022-12-06T15:19:49.956Z,72.82
2022-12-06T15:22:27.726Z,72.86
2022-12-06T15:25:00.273Z,72.94
2022-12-06T15:27:31.367Z,73.09
2022-12-06T15:30:05.230Z,73.09
2022-12-06T15:32:34.906Z,73.05
2022-12-06T15:35:09.446Z,73.13
2022-12-06T15:37:40.419Z,73.20
2022-12-06T15:40:15.222Z,73.09
2022-12-06T15:42:44.741Z,73.09
2022-12-06T15:45:18.920Z,73.28
2022-12-06T15:47:51.879Z,73.30
2022-12-06T15:50:21.206Z,73.22
2022-12-06T15:53:23.412Z,73.22
2022-12-06T15:55:57.207Z,73.24
2022-12-06T15:58:26.516Z,73.33
2022-12-06T16:00:57.756Z,73.23
2022-12-06T16:03:26.912Z,73.35
2022-12-06T16:05:57.268Z,73.39
2022-12-06T16:08:26.536Z,73.22
2022-12-06T16:11:13.549Z,73.13
2022-12-06T16:13:42.810Z,73.20
2022-12-06T16:16:12.901Z,73.32
2022-12-06T16:18:46.542Z,73.06
2022-12-06T16:21:23.412Z,73.13
2022-12-06T16:24:14.645Z,73.41
2022-12-06T16:26:45.779Z,73.48
2022-12-06T16:29:25.149Z,73.52
2022-12-06T16:31:54.618Z,73.77
2022-12-06T16:34:34.806Z,73.73
2022-12-06T16:37:06.781Z,73.70
2022-12-06T16:39:36.146Z,73.75
2022-12-06T16:42:05.531Z,73.69
2022-12-06T16:44:51.277Z,73.82
2022-12-06T16:49:49.929Z,73.90
2022-12-06T16:52:19.389Z,73.87
2022-12-06T16:54:52.790Z,73.84
2022-12-06T16:57:31.238Z,73.86
2022-12-06T17:00:02.421Z,73.89
2022-12-06T17:02:36.424Z,73.98
2022-12-06T17:05:10.348Z,74.10
2022-12-06T17:07:41.158Z,74.10
2022-12-06T17:10:18.505Z,74.15
2022-12-06T17:12:49.711Z,74.27
2022-12-06T17:15:21.788Z,74.41
2022-12-06T17:17:51.498Z,74.44
2022-12-06T17:20:20.806Z,74.23
2022-12-06T17:22:49.994Z,74.23
2022-12-06T17:25:22.103Z,74.19
2022-12-06T17:28:01.968Z,74.39
2022-12-06T17:30:31.042Z,74.44
2022-12-06T17:33:00.341Z,74.25
2022-12-06T17:35:38.788Z,74.42
2022-12-06T17:38:09.557Z,74.59
2022-12-06T17:40:39.049Z,74.51
2022-12-06T17:43:17.915Z,74.43
2022-12-06T17:45:57.158Z,74.39
2022-12-06T17:48:36.026Z,74.49
2022-12-06T17:51:09.931Z,74.34
2022-12-06T17:53:42.262Z,74.36
2022-12-06T17:56:23.085Z,74.51
2022-12-06T17:58:57.658Z,74.59
2022-12-06T18:01:50.976Z,74.48
2022-12-06T18:04:21.775Z,74.33
2022-12-06T18:06:51.399Z,74.24
2022-12-06T18:09:29.048Z,74.27
2022-12-06T18:12:00.330Z,74.40
2022-12-06T18:14:33.782Z,74.26
2022-12-06T18:17:09.064Z,74.20
2022-12-06T18:19:40.593Z,74.41
2022-12-06T18:22:29.934Z,74.38
2022-12-06T18:25:03.914Z,74.24
2022-12-06T18:27:33.294Z,74.29
2022-12-06T18:30:56.629Z,74.33
2022-12-06T18:33:52.841Z,74.25
2022-12-06T18:36:34.173Z,74.25
2022-12-06T18:39:15.025Z,74.16
2022-12-06T18:42:25.480Z,74.28
2022-12-06T18:45:02.745Z,74.47
2022-12-06T18:48:04.302Z,74.38
2022-12-06T18:50:39.089Z,74.36
2022-12-06T18:53:11.129Z,74.54
2022-12-06T18:55:43.155Z,74.48
2022-12-06T18:58:15.487Z,74.40
2022-12-06T19:00:45.644Z,74.24
2022-12-06T19:03:22.726Z,74.22
2022-12-06T19:06:03.050Z,74.09
2022-12-06T19:08:32.867Z,74.06
2022-12-06T19:11:05.947Z,74.03
2022-12-06T19:14:08.713Z,73.94
2022-12-06T19:16:48.405Z,73.78
2022-12-06T19:19:25.973Z,73.77
2022-12-06T19:22:00.531Z,74.02
2022-12-06T19:24:42.253Z,74.00
2022-12-06T19:27:18.492Z,73.92
2022-12-06T19:29:50.145Z,73.70
2022-12-06T19:32:28.952Z,73.68
2022-12-06T19:35:08.176Z,73.74
2022-12-06T19:37:46.776Z,73.69
2022-12-06T19:40:28.115Z,73.80
2022-12-06T19:43:22.867Z,73.67
2022-12-06T19:45:56.483Z,73.74
2022-12-06T19:48:28.294Z,73.80
2022-12-06T19:50:58.838Z,73.86
2022-12-06T19:53:28.447Z,73.63
2022-12-06T19:56:09.877Z,73.67
2022-12-06T19:58:51.381Z,73.75
2022-12-06T20:01:35.839Z,73.60
2022-12-06T20:04:29.666Z,73.67
2022-12-06T20:07:10.326Z,73.60
2022-12-06T20:09:40.087Z,73.61
2022-12-06T20:12:13.280Z,73.53
2022-12-06T20:14:56.850Z,73.52
2022-12-06T20:17:43.791Z,73.65
2022-12-06T20:20:22.892Z,73.70
2022-12-06T20:23:10.240Z,73.65
2022-12-06T20:25:44.369Z,73.58
2022-12-06T20:28:28.275Z,73.54
2022-12-06T20:31:17.941Z,73.44
2022-12-06T20:34:03.337Z,73.45
2022-12-06T20:36:38.231Z,73.39
2022-12-06T20:39:08.189Z,73.37
2022-12-06T20:41:37.782Z,73.38
2022-12-06T20:44:10.653Z,73.36
2022-12-06T20:46:54.468Z,73.40
2022-12-06T20:49:24.623Z,73.35
2022-12-06T20:51:54.037Z,73.20
2022-12-06T20:54:23.485Z,73.21
2022-12-06T20:56:55.283Z,73.11
2022-12-06T20:59:25.070Z,72.94
2022-12-06T21:01:55.192Z,73.02
2022-12-06T21:04:32.913Z,73.05
2022-12-06T21:07:04.859Z,73.03
2022-12-06T21:09:40.791Z,73.07
2022-12-06T21:12:21.484Z,73.02
2022-12-06T21:14:55.915Z,72.81
2022-12-06T21:17:29.170Z,72.94
2022-12-06T21:20:04.180Z,73.05
2022-12-06T21:22:47.098Z,73.10
2022-12-06T21:30:03.805Z,73.04
2022-12-06T21:31:38.497Z,73.14
2022-12-06T21:34:18.926Z,73.23
2022-12-06T21:36:51.540Z,73.12
2022-12-06T21:39:22.699Z,73.09
2022-12-06T21:41:56.462Z,72.98
2022-12-06T21:44:35.990Z,72.98
2022-12-06T21:48:50.348Z,73.01
2022-12-06T21:50:16.075Z,72.99
2022-12-06T21:52:59.569Z,72.93
2022-12-06T21:55:45.493Z,72.93
2022-12-06T21:58:41.194Z,72.83
2022-12-06T22:01:27.226Z,72.82
2022-12-06T22:04:05.032Z,72.93
2022-12-06T22:06:36.999Z,72.77
2022-12-06T22:09:07.137Z,72.69
2022-12-06T22:11:37.081Z,72.79
2022-12-06T22:14:08.799Z,72.95
2022-12-06T22:16:40.719Z,72.94
2022-12-06T22:19:25.419Z,72.74
2022-12-06T22:22:00.491Z,72.65
2022-12-06T22:24:50.791Z,72.72
2022-12-06T22:27:21.974Z,72.58
2022-12-06T22:29:51.073Z,72.50
2022-12-06T22:32:20.701Z,72.71
2022-12-06T22:34:52.480Z,72.73
2022-12-06T22:37:29.734Z,72.74
2022-12-06T22:40:09.189Z,72.69
2022-12-06T22:42:38.517Z,72.58
2022-12-06T22:45:14.530Z,72.55
2022-12-06T22:47:48.537Z,72.46
2022-12-06T22:50:31.544Z,72.57
2022-12-06T22:53:11.532Z,72.63
2022-12-06T22:55:40.664Z,72.53
2022-12-06T22:58:11.530Z,72.75
2022-12-06T23:00:41.454Z,72.65
2022-12-06T23:03:12.907Z,72.58
2022-12-06T23:05:42.205Z,72.77
2022-12-06T23:08:15.997Z,72.82
2022-12-06T23:10:47.431Z,72.78
2022-12-06T23:13:16.499Z,72.68
2022-12-06T23:15:55.612Z,72.84
2022-12-06T23:18:26.028Z,72.87
2022-12-06T23:21:07.251Z,72.89
2022-12-06T23:23:41.337Z,72.78
2022-12-06T23:26:18.789Z,72.78
2022-12-06T23:28:48.039Z,72.86
2022-12-06T23:31:39.170Z,72.83
2022-12-06T23:34:29.587Z,72.82
2022-12-06T23:36:59.649Z,72.82
2022-12-06T23:39:28.809Z,72.76
2022-12-06T23:41:57.869Z,72.77
2022-12-06T23:44:26.848Z,72.89
2022-12-06T23:46:55.872Z,72.88
2022-12-06T23:49:24.815Z,72.87
2022-12-06T23:51:53.873Z,72.93
2022-12-06T23:54:22.811Z,72.91
2022-12-06T23:56:51.748Z,72.89
2022-12-06T23:59:20.694Z,72.89
